Time;durP1;ratioP1;P1;durP2;ratioP2;P2;SDS_P1;SDS_P2;PMS_P1;PMS_P2;Temp;Humidity;BMP_temperature;BMP_pressure;BME280_temperature;BME280_humidity;BME280_pressure;Samples;Min_cycle;Max_cycle;Signal;HPM_P1;HPM_P2
2021/03/22 00:02:25;;;;;;;18.17;5.20;;;;;;;1.76;100.00;102589.38;5155042;28;20042;-70
2021/03/22 00:04:55;;;;;;;25.35;4.30;;;;;;;1.80;100.00;102585.66;5147254;28;20516;-70
2021/03/22 00:07:26;;;;;;;26.83;4.97;;;;;;;1.85;100.00;102594.25;5157817;28;20034;-69
2021/03/22 00:09:56;;;;;;;27.17;5.05;;;;;;;1.90;100.00;102581.69;5158080;28;20041;-69
2021/03/22 00:12:27;;;;;;;29.17;4.78;;;;;;;1.96;100.00;102580.56;5157479;28;20026;-70
2021/03/22 00:14:57;;;;;;;23.55;5.03;;;;;;;1.99;100.00;102581.28;5158774;28;20042;-71
2021/03/22 00:17:27;;;;;;;34.85;5.18;;;;;;;2.03;100.00;102582.00;5157700;28;20025;-69
2021/03/22 00:19:58;;;;;;;22.30;4.13;;;;;;;2.03;100.00;102572.28;5157761;28;20031;-70
2021/03/22 00:22:29;;;;;;;25.58;4.03;;;;;;;2.05;100.00;102575.69;5157819;28;20069;-69
2021/03/22 00:24:59;;;;;;;25.05;4.88;;;;;;;2.08;100.00;102569.41;5157340;28;20034;-70
2021/03/22 00:27:30;;;;;;;25.13;5.10;;;;;;;2.13;100.00;102567.41;5159510;28;20543;-70
2021/03/22 00:30:00;;;;;;;32.90;5.63;;;;;;;2.17;100.00;102568.16;5160957;28;20440;-70
2021/03/22 00:32:31;;;;;;;32.78;5.72;;;;;;;2.18;100.00;102562.78;5160054;28;20731;-69
2021/03/22 00:35:03;;;;;;;21.17;5.40;;;;;;;2.17;100.00;102565.50;5161779;28;20029;-70
2021/03/22 00:37:33;;;;;;;30.70;6.15;;;;;;;2.14;100.00;102557.69;5160886;28;20015;-70
2021/03/22 00:40:04;;;;;;;26.13;4.75;;;;;;;2.10;100.00;102556.09;5160587;28;20032;-70
2021/03/22 00:42:35;;;;;;;35.38;5.78;;;;;;;2.04;100.00;102559.91;5160942;28;20506;-70
2021/03/22 00:45:07;;;;;;;34.08;4.88;;;;;;;2.01;100.00;102546.81;5161171;28;20038;-70
2021/03/22 00:47:38;;;;;;;16.55;5.07;;;;;;;2.00;100.00;102555.66;5160867;28;20117;-71
2021/03/22 00:50:17;;;;;;;27.88;5.20;;;;;;;2.00;100.00;102550.38;5159964;28;20101;-68
2021/03/22 00:52:47;;;;;;;27.15;5.72;;;;;;;2.00;100.00;102547.72;5160950;28;20034;-67
2021/03/22 00:55:19;;;;;;;35.05;7.60;;;;;;;2.02;100.00;102546.72;5160898;28;20067;-68
2021/03/22 00:57:50;;;;;;;21.60;5.63;;;;;;;2.01;100.00;102550.31;5160874;28;20022;-68
2021/03/22 01:00:27;;;;;;;33.92;5.22;;;;;;;1.97;100.00;102553.16;5160162;28;20046;-68
2021/03/22 01:02:58;;;;;;;30.45;5.20;;;;;;;1.98;100.00;102552.22;5148627;28;20068;-67
2021/03/22 01:05:28;;;;;;;36.50;7.78;;;;;;;2.00;100.00;102545.94;5160692;28;20398;-68
2021/03/22 01:07:59;;;;;;;35.33;5.05;;;;;;;2.05;100.00;102546.56;5160834;28;20030;-68
2021/03/22 01:10:39;;;;;;;29.00;5.65;;;;;;;2.12;100.00;102552.47;5159453;28;20026;-67
2021/03/22 01:13:16;;;;;;;24.23;4.95;;;;;;;2.21;100.00;102546.75;5160461;28;20030;-67
2021/03/22 01:15:48;;;;;;;36.38;7.38;;;;;;;2.28;100.00;102547.31;5160499;28;20079;-68
2021/03/22 01:18:23;;;;;;;31.60;6.18;;;;;;;2.33;100.00;102548.81;5160630;28;20030;-69
2021/03/22 01:20:59;;;;;;;28.48;5.72;;;;;;;2.40;100.00;102537.94;5160164;28;20030;-67
2021/03/22 01:23:29;;;;;;;34.50;5.50;;;;;;;2.45;100.00;102542.09;5159879;28;20433;-68
2021/03/22 01:26:00;;;;;;;37.25;5.80;;;;;;;2.52;100.00;102532.06;5160784;28;20030;-67
2021/03/22 01:28:30;;;;;;;31.33;5.78;;;;;;;2.57;100.00;102540.66;5160255;28;20113;-68
2021/03/22 01:31:01;;;;;;;43.35;6.22;;;;;;;2.59;100.00;102538.78;5160229;28;20060;-68
2021/03/22 01:33:40;;;;;;;41.95;6.05;;;;;;;2.62;100.00;102533.34;5160428;28;20489;-68
2021/03/22 01:36:15;;;;;;;43.30;7.82;;;;;;;2.65;100.00;102525.22;5159821;28;20070;-68
2021/03/22 01:38:46;;;;;;;;;;;;;;;2.69;100.00;102524.16;5160752;28;20045;-67
2021/03/22 01:41:24;;;;;;;32.58;4.80;;;;;;;2.72;100.00;102518.72;5160051;28;19952;-67
2021/03/22 01:44:18;;;;;;;49.33;5.97;;;;;;;2.76;100.00;102522.06;5160468;28;20038;-68
2021/03/22 01:46:53;;;;;;;30.77;4.95;;;;;;;2.82;100.00;102525.28;5160407;28;20030;-68
2021/03/22 01:49:28;;;;;;;25.20;5.75;;;;;;;2.83;100.00;102519.03;5160223;28;20026;-67
2021/03/22 01:51:59;;;;;;;27.45;4.85;;;;;;;2.84;100.00;102519.91;5159935;28;20022;-67
2021/03/22 01:54:29;;;;;;;31.90;6.30;;;;;;;2.82;100.00;102517.34;5160026;28;20026;-69
2021/03/22 01:57:22;;;;;;;24.48;5.10;;;;;;;2.81;100.00;102517.38;5159662;28;20455;-68
2021/03/22 02:00:01;;;;;;;30.02;5.88;;;;;;;2.82;100.00;102516.47;5160521;28;20168;-68
2021/03/22 02:02:33;;;;;;;36.85;5.70;;;;;;;2.84;100.00;102504.00;5156927;28;20097;-68
2021/03/22 02:05:05;;;;;;;21.10;5.00;;;;;;;2.87;100.00;102506.50;5151148;28;20383;-68
2021/03/22 02:07:37;;;;;;;33.38;6.90;;;;;;;2.87;100.00;102497.69;5159813;28;20571;-68
2021/03/22 02:10:09;;;;;;;29.60;5.00;;;;;;;2.89;100.00;102503.78;5160304;28;20443;-68
2021/03/22 02:12:39;;;;;;;24.77;5.15;;;;;;;2.89;100.00;102493.16;5158598;28;20051;-69
2021/03/22 02:15:11;;;;;;;23.77;5.13;;;;;;;2.89;100.00;102496.69;5159802;28;20026;-68
2021/03/22 02:17:52;;;;;;;31.30;5.75;;;;;;;2.91;100.00;102494.78;5159734;28;20339;-68
2021/03/22 02:21:00;;;;;;;28.35;6.18;;;;;;;2.92;100.00;102493.88;5159320;28;20167;-68
2021/03/22 02:23:54;;;;;;;24.83;6.68;;;;;;;2.94;100.00;102493.78;5159949;28;20026;-68
2021/03/22 02:27:08;;;;;;;35.35;6.72;;;;;;;2.97;100.00;102491.88;5159691;28;20022;-68
2021/03/22 02:29:57;;;;;;;22.52;6.03;;;;;;;3.03;100.00;102490.69;5159517;28;20502;-68
2021/03/22 02:32:36;;;;;;;31.58;5.53;;;;;;;3.07;100.00;102487.81;5148458;28;20091;-68
2021/03/22 02:35:11;;;;;;;37.85;6.57;;;;;;;3.15;100.00;102483.91;5159659;28;20030;-68
2021/03/22 02:38:00;;;;;;;36.47;6.78;;;;;;;3.20;100.00;102488.03;5159415;28;20065;-69
2021/03/22 02:40:39;;;;;;;31.65;6.32;;;;;;;3.23;100.00;102476.41;5147308;28;20030;-69
2021/03/22 02:43:09;;;;;;;32.90;6.00;;;;;;;3.25;100.00;102480.69;5159430;28;20558;-68
2021/03/22 02:45:42;;;;;;;27.02;6.05;;;;;;;3.25;100.00;102471.88;5158054;28;20113;-68
2021/03/22 02:48:19;;;;;;;22.15;5.53;;;;;;;3.26;100.00;102477.13;5158814;28;20117;-68
2021/03/22 02:50:58;;;;;;;33.25;6.57;;;;;;;3.27;100.00;102480.63;5157193;28;20659;-68
2021/03/22 02:53:44;;;;;;;23.65;6.03;;;;;;;3.30;100.00;102472.50;5159002;28;20095;-68
2021/03/22 02:56:26;;;;;;;28.55;7.32;;;;;;;3.30;100.00;102476.00;5158598;28;20034;-68
2021/03/22 02:59:09;;;;;;;26.52;6.70;;;;;;;3.35;100.00;102475.75;5159145;28;20064;-69
2021/03/22 03:01:47;;;;;;;30.90;6.03;;;;;;;3.40;100.00;102470.22;5158520;28;20457;-68
2021/03/22 03:04:22;;;;;;;41.35;7.40;;;;;;;3.45;100.00;102468.19;5145796;28;20480;-67
2021/03/22 03:07:05;;;;;;;38.22;7.22;;;;;;;3.48;100.00;102468.88;5158570;28;20030;-68
2021/03/22 03:09:39;;;;;;;27.02;6.85;;;;;;;3.47;100.00;102467.19;5158729;28;20386;-68
2021/03/22 03:12:16;;;;;;;34.15;7.80;;;;;;;3.47;100.00;102474.28;5158014;28;20372;-68
2021/03/22 03:14:51;;;;;;;40.95;10.27;;;;;;;3.43;100.00;102470.94;5156408;28;20054;-67
2021/03/22 03:17:23;;;;;;;39.85;7.68;;;;;;;3.44;100.00;102469.13;5154997;28;20026;-68
2021/03/22 03:19:54;;;;;;;46.60;7.55;;;;;;;3.44;100.00;102469.97;5158456;28;20026;-69
2021/03/22 03:22:25;;;;;;;34.50;7.85;;;;;;;3.43;100.00;102467.41;5157132;28;20046;-69
2021/03/22 03:24:56;;;;;;;41.53;7.53;;;;;;;3.41;100.00;102469.28;5158687;28;20030;-68
2021/03/22 03:27:26;;;;;;;46.28;7.75;;;;;;;3.42;100.00;102471.03;5158243;28;20376;-68
2021/03/22 03:29:57;;;;;;;40.63;7.75;;;;;;;3.43;100.00;102476.22;5158107;28;20037;-68
2021/03/22 03:32:27;;;;;;;43.72;7.10;;;;;;;3.47;100.00;102471.63;5157328;28;20034;-69
2021/03/22 03:34:58;;;;;;;32.97;6.80;;;;;;;3.47;100.00;102471.63;5158337;28;20483;-68
2021/03/22 03:37:28;;;;;;;38.22;8.18;;;;;;;3.48;100.00;102476.00;5158163;28;20030;-68
2021/03/22 03:39:58;;;;;;;34.05;8.25;;;;;;;3.48;100.00;102470.69;5158243;28;20030;-68
2021/03/22 03:42:29;;;;;;;44.90;8.63;;;;;;;3.51;100.00;102467.84;5157950;28;20471;-68
2021/03/22 03:44:59;;;;;;;41.50;9.32;;;;;;;3.53;100.00;102473.97;5157608;28;20030;-68
2021/03/22 03:47:30;;;;;;;38.58;9.57;;;;;;;3.54;100.00;102470.34;5157975;28;20034;-68
2021/03/22 03:50:00;;;;;;;35.58;7.53;;;;;;;3.55;100.00;102474.72;5157643;28;20030;-67
2021/03/22 03:52:31;;;;;;;33.78;8.23;;;;;;;3.58;100.00;102477.22;5156476;28;20022;-68
2021/03/22 03:55:04;;;;;;;41.25;8.88;;;;;;;3.64;100.00;102479.53;5158463;28;20487;-68
2021/03/22 03:57:34;;;;;;;42.90;8.85;;;;;;;3.71;100.00;102482.72;5157012;28;20095;-68
2021/03/22 04:00:08;;;;;;;38.50;8.05;;;;;;;3.73;100.00;102483.50;5157753;28;20030;-68
2021/03/22 04:02:41;;;;;;;33.53;8.20;;;;;;;3.82;100.00;102486.53;5152812;28;20038;-68
2021/03/22 04:05:12;;;;;;;33.85;8.07;;;;;;;3.95;100.00;102491.16;5149494;28;20032;-69
2021/03/22 04:07:43;;;;;;;33.08;7.15;;;;;;;4.02;100.00;102490.78;5157540;28;20478;-68
2021/03/22 04:10:15;;;;;;;38.45;8.55;;;;;;;4.08;100.00;102490.44;5156956;28;20035;-68
2021/03/22 04:12:45;;;;;;;38.05;8.05;;;;;;;4.14;100.00;102492.75;5158134;28;20109;-68
2021/03/22 04:15:16;;;;;;;32.15;6.85;;;;;;;4.12;100.00;102494.63;5157670;28;20117;-69
2021/03/22 04:17:46;;;;;;;44.95;12.25;;;;;;;4.12;100.00;102485.81;5157793;28;20018;-68
2021/03/22 04:20:18;;;;;;;34.30;8.82;;;;;;;4.09;100.00;102489.47;5156967;28;20054;-69
2021/03/22 04:22:48;;;;;;;25.92;7.38;;;;;;;4.14;100.00;102490.09;5157272;28;20034;-69
2021/03/22 04:25:18;;;;;;;39.00;11.07;;;;;;;4.16;100.00;102492.66;5157979;28;20135;-68
2021/03/22 04:27:49;;;;;;;29.48;8.82;;;;;;;4.15;100.00;102493.59;5158186;28;20083;-68
2021/03/22 04:30:20;;;;;;;29.65;8.93;;;;;;;4.24;100.00;102482.47;5157352;28;20141;-68
2021/03/22 04:32:51;;;;;;;26.40;7.20;;;;;;;4.27;100.00;102492.06;5157329;28;20439;-68
2021/03/22 04:35:24;;;;;;;29.60;7.35;;;;;;;4.36;100.00;102491.53;5157438;28;20425;-68
2021/03/22 04:37:54;;;;;;;20.58;5.93;;;;;;;4.44;100.00;102486.66;5157601;28;20340;-68
2021/03/22 04:40:28;;;;;;;28.98;7.53;;;;;;;4.57;100.00;102481.53;5157511;28;20030;-68
2021/03/22 04:42:59;;;;;;;26.08;6.45;;;;;;;4.61;100.00;102496.31;5157477;28;20042;-69
2021/03/22 04:45:30;;;;;;;30.30;7.80;;;;;;;4.59;100.00;102500.88;5157004;28;20037;-68
2021/03/22 04:48:01;;;;;;;22.02;7.32;;;;;;;4.58;100.00;102489.41;5157070;28;20031;-68
2021/03/22 04:50:31;;;;;;;27.60;6.50;;;;;;;4.66;100.00;102492.44;5156788;28;20088;-67
2021/03/22 04:53:02;;;;;;;16.73;5.88;;;;;;;4.74;100.00;102484.06;5156900;28;20473;-68
2021/03/22 04:55:33;;;;;;;22.17;4.90;;;;;;;4.73;100.00;102487.66;5157259;28;20050;-69
2021/03/22 04:58:04;;;;;;;20.50;5.45;;;;;;;4.87;100.00;102486.84;5156202;28;20019;-68
2021/03/22 05:00:40;;;;;;;17.27;4.88;;;;;;;4.83;100.00;102493.31;5156398;28;20137;-68
2021/03/22 05:03:14;;;;;;;18.92;5.38;;;;;;;4.73;100.00;102500.97;5156928;28;20030;-68
2021/03/22 05:05:46;;;;;;;17.80;5.13;;;;;;;4.73;100.00;102492.97;5156736;28;20065;-68
2021/03/22 05:08:19;;;;;;;17.77;4.82;;;;;;;4.89;100.00;102485.81;5156354;28;20085;-68
2021/03/22 05:10:53;;;;;;;24.70;4.88;;;;;;;4.73;100.00;102494.78;5156255;28;20022;-68
2021/03/22 05:13:24;;;;;;;21.33;5.57;;;;;;;4.80;100.00;102497.00;5158290;28;20023;-68
2021/03/22 05:15:55;;;;;;;14.32;4.72;;;;;;;4.90;100.00;102497.31;5160199;28;20029;-68
2021/03/22 05:18:27;;;;;;;19.10;6.00;;;;;;;4.85;100.00;102502.91;5160063;28;20034;-69
2021/03/22 05:21:02;;;;;;;19.40;5.63;;;;;;;4.99;100.00;102495.94;5159279;28;20026;-68
2021/03/22 05:23:37;;;;;;;25.98;6.07;;;;;;;4.88;100.00;102496.56;5159971;28;20076;-68
2021/03/22 05:26:09;;;;;;;22.38;5.93;;;;;;;4.88;100.00;102508.06;5160528;28;20018;-69
2021/03/22 05:28:40;;;;;;;40.90;8.15;;;;;;;4.84;100.00;102500.34;5159881;28;20421;-69
2021/03/22 05:31:11;;;;;;;30.80;6.53;;;;;;;4.82;100.00;102499.56;5159390;28;20115;-68
2021/03/22 05:33:41;;;;;;;29.30;6.97;;;;;;;4.80;100.00;102493.47;5159716;28;20114;-69
2021/03/22 05:36:12;;;;;;;24.42;6.70;;;;;;;4.83;100.00;102494.16;5159936;28;20026;-69
2021/03/22 05:38:42;;;;;;;26.05;6.38;;;;;;;4.74;100.00;102502.66;5160096;28;20091;-69
2021/03/22 05:41:18;;;;;;;29.17;6.32;;;;;;;4.74;100.00;102505.31;5159347;28;20100;-68
2021/03/22 05:44:07;;;;;;;31.20;6.30;;;;;;;4.68;100.00;102503.03;5157969;28;20050;-68
2021/03/22 05:46:51;;;;;;;23.90;6.78;;;;;;;4.63;100.00;102511.25;5159612;28;20038;-69
2021/03/22 05:49:53;;;;;;;20.27;5.63;;;;;;;4.59;100.00;102503.53;5160038;28;20474;-69
2021/03/22 05:52:48;;;;;;;24.15;5.43;;;;;;;4.56;100.00;102509.03;5158890;28;20033;-68
2021/03/22 05:55:35;;;;;;;24.63;6.82;;;;;;;4.51;100.00;102511.94;5150739;28;20034;-69
2021/03/22 05:58:30;;;;;;;25.33;6.50;;;;;;;4.45;100.00;102517.59;5159471;28;20033;-68
2021/03/22 06:01:22;;;;;;;33.53;7.53;;;;;;;4.43;100.00;102526.63;5159348;28;20433;-69
2021/03/22 06:03:58;;;;;;;27.02;6.68;;;;;;;4.40;100.00;102524.97;5147112;28;20035;-69
2021/03/22 06:06:41;;;;;;;27.85;8.88;;;;;;;4.45;100.00;102532.69;5159789;28;20058;-69
2021/03/22 06:09:28;;;;;;;21.98;6.60;;;;;;;4.49;100.00;102529.78;5185984;28;20027;-68
2021/03/22 06:12:02;;;;;;;21.08;6.55;;;;;;;4.59;100.00;102538.09;5189848;28;20062;-68
2021/03/22 06:14:41;;;;;;;27.05;8.18;;;;;;;4.71;100.00;102540.06;5160043;28;20026;-68
2021/03/22 06:17:17;;;;;;;25.05;5.13;;;;;;;4.78;100.00;102540.59;5158804;28;20057;-68
2021/03/22 06:19:58;;;;;;;;;;;;;;;4.77;100.00;102545.03;5159977;28;20041;-69
2021/03/22 06:22:31;;;;;;;20.95;5.68;;;;;;;4.72;100.00;102547.09;5146547;28;20339;-69
2021/03/22 06:25:14;;;;;;;26.02;6.20;;;;;;;4.77;100.00;102545.03;5158412;28;20034;-68
2021/03/22 06:27:50;;;;;;;21.35;5.55;;;;;;;4.65;100.00;102551.91;5158773;28;20466;-68
2021/03/22 06:30:24;;;;;;;19.95;5.85;;;;;;;4.67;100.00;102550.03;5158594;28;20026;-68
2021/03/22 06:32:59;;;;;;;27.25;6.82;;;;;;;4.61;100.00;102553.00;5159383;28;20026;-68
2021/03/22 06:35:35;;;;;;;33.83;7.10;;;;;;;4.67;100.00;102563.31;5159786;28;20031;-71
2021/03/22 06:38:08;;;;;;;23.58;6.97;;;;;;;4.68;100.00;102556.19;5158596;28;20386;-70
2021/03/22 06:40:38;;;;;;;25.20;6.40;;;;;;;4.74;100.00;102562.97;5158804;28;20265;-70
2021/03/22 06:43:12;;;;;;;33.17;7.55;;;;;;;4.71;100.00;102561.31;5159063;28;20044;-71
2021/03/22 06:45:48;;;;;;;24.42;6.88;;;;;;;4.75;100.00;102567.34;5159169;28;20085;-71
2021/03/22 06:48:18;;;;;;;27.88;6.93;;;;;;;4.74;100.00;102562.97;5158341;28;20390;-70
2021/03/22 06:50:52;;;;;;;35.00;6.93;;;;;;;4.68;100.00;102564.16;5158248;28;20035;-71
2021/03/22 06:53:53;;;;;;;21.92;6.43;;;;;;;4.72;100.00;102568.38;5159317;28;20030;-70
2021/03/22 06:56:28;;;;;;;30.30;7.15;;;;;;;5.00;100.00;102558.81;5157774;28;20471;-70
2021/03/22 06:59:10;;;;;;;31.45;6.93;;;;;;;5.05;100.00;102562.06;5158173;28;20079;-70
2021/03/22 07:01:43;;;;;;;28.95;6.78;;;;;;;5.00;100.00;102562.31;5158491;28;20095;-70
2021/03/22 07:04:32;;;;;;;31.40;7.30;;;;;;;4.94;100.00;102568.84;5158379;28;20030;-70
2021/03/22 07:07:06;;;;;;;29.02;6.47;;;;;;;5.04;100.00;102558.56;5158132;28;20113;-70
2021/03/22 07:09:49;;;;;;;25.90;7.10;;;;;;;5.18;100.00;102557.75;5158723;28;20031;-70
2021/03/22 07:12:23;;;;;;;30.75;7.00;;;;;;;5.02;100.00;102559.56;5156963;28;20415;-71
2021/03/22 07:15:23;;;;;;;27.92;7.38;;;;;;;5.08;100.00;102569.88;5158584;28;20037;-70
2021/03/22 07:18:01;;;;;;;22.58;6.40;;;;;;;5.11;100.00;102573.19;5148416;28;20026;-70
2021/03/22 07:20:32;;;;;;;38.15;9.80;;;;;;;5.12;100.00;102568.72;5158183;28;20041;-70
2021/03/22 07:23:13;;;;;;;21.33;6.38;;;;;;;5.18;100.00;102568.41;5145986;28;20039;-71
2021/03/22 07:25:49;;;;;;;27.48;7.63;;;;;;;5.20;100.00;102569.16;5138422;28;20423;-71
2021/03/22 07:28:31;;;;;;;27.08;7.38;;;;;;;5.27;100.00;102572.31;5137499;28;20340;-70
2021/03/22 07:31:58;;;;;;;26.42;6.88;;;;;;;5.36;100.00;102567.31;5143874;28;20364;-70
2021/03/22 07:34:46;;;;;;;29.38;7.30;;;;;;;5.38;100.00;102564.56;5136371;28;20035;-71
2021/03/22 07:37:31;;;;;;;28.48;7.55;;;;;;;5.44;100.00;102572.19;5144534;28;20019;-71
2021/03/22 07:40:12;;;;;;;30.05;7.03;;;;;;;5.62;100.00;102565.78;5142658;28;20180;-71
2021/03/22 07:43:00;;;;;;;29.45;6.78;;;;;;;5.66;100.00;102566.44;5156190;28;20079;-71
2021/03/22 07:45:36;;;;;;;20.13;7.57;;;;;;;5.73;100.00;102557.13;5145967;28;20030;-70
2021/03/22 07:48:26;;;;;;;;;;;;;;;5.91;100.00;102560.47;5156754;28;20022;-71
2021/03/22 07:51:03;;;;;;;29.02;6.30;;;;;;;5.91;100.00;102556.03;5155116;28;19910;-68
2021/03/22 07:53:44;;;;;;;23.20;5.28;;;;;;;6.13;100.00;102560.03;5156749;28;20084;-69
2021/03/22 07:56:21;;;;;;;27.80;6.82;;;;;;;6.10;100.00;102565.56;5157001;28;20398;-69
2021/03/22 07:59:04;;;;;;;24.05;6.70;;;;;;;6.23;100.00;102575.38;5156027;28;20318;-69
2021/03/22 08:01:55;;;;;;;30.38;6.68;;;;;;;6.32;100.00;102567.72;5143900;28;20038;-69
2021/03/22 08:04:40;;;;;;;25.35;7.53;;;;;;;6.42;100.00;102572.38;5156663;28;20486;-69
2021/03/22 08:07:23;;;;;;;32.20;7.38;;;;;;;6.39;100.00;102567.25;5154964;28;20117;-69
2021/03/22 08:10:03;;;;;;;39.08;7.07;;;;;;;6.39;100.00;102569.91;5156296;28;20137;-69
2021/03/22 08:12:48;;;;;;;28.58;7.97;;;;;;;6.53;100.00;102573.53;5156473;28;20099;-70
2021/03/22 08:15:26;;;;;;;;;;;;;;;6.59;100.00;102565.13;5156849;28;20022;-69
2021/03/22 08:18:07;;;;;;;19.25;6.43;;;;;;;6.67;100.00;102570.81;5155285;28;19909;-70
2021/03/22 08:20:48;;;;;;;26.23;5.75;;;;;;;6.86;100.00;102571.31;5155707;28;20029;-69
2021/03/22 08:23:29;;;;;;;29.95;7.80;;;;;;;6.91;100.00;102579.03;5156860;28;20113;-70
2021/03/22 08:26:03;;;;;;;29.20;7.22;;;;;;;7.01;100.00;102575.66;5156571;28;20034;-69
2021/03/22 08:28:45;;;;;;;28.05;7.03;;;;;;;7.12;100.00;102582.09;5148263;28;20023;-68
2021/03/22 08:31:36;;;;;;;29.90;6.80;;;;;;;6.95;100.00;102576.06;5150198;28;21029;-68
2021/03/22 08:34:13;;;;;;;33.90;8.13;;;;;;;7.14;100.00;102577.53;5145551;28;20113;-69
2021/03/22 08:36:52;;;;;;;25.33;6.00;;;;;;;7.25;100.00;102575.00;5142219;28;20022;-70
2021/03/22 08:39:26;;;;;;;25.50;6.18;;;;;;;7.35;100.00;102578.75;5155676;28;20371;-69
2021/03/22 08:42:19;;;;;;;30.40;6.25;;;;;;;7.47;100.00;102580.59;5142947;28;20037;-70
2021/03/22 08:45:01;;;;;;;23.63;6.20;;;;;;;7.56;100.00;102588.94;5155386;28;20041;-71
2021/03/22 08:47:53;;;;;;;21.63;5.45;;;;;;;7.70;100.00;102591.53;5155275;28;20022;-70
2021/03/22 08:50:27;;;;;;;27.38;6.28;;;;;;;7.73;100.00;102588.63;5158967;28;20113;-71
2021/03/22 08:53:00;;;;;;;23.38;6.13;;;;;;;7.98;100.00;102593.16;5159129;28;20023;-69
2021/03/22 08:55:47;;;;;;;28.25;6.57;;;;;;;7.94;100.00;102589.00;5159071;28;20117;-69
2021/03/22 08:58:27;;;;;;;55.40;16.17;;;;;;;7.91;100.00;102586.53;5159707;28;20030;-69
2021/03/22 09:01:07;;;;;;;46.33;11.23;;;;;;;7.97;100.00;102589.63;5140985;28;20394;-70
2021/03/22 09:03:40;;;;;;;16.45;5.35;;;;;;;8.10;100.00;102592.31;5147865;28;20030;-70
2021/03/22 09:06:24;;;;;;;13.77;5.60;;;;;;;7.96;100.00;102590.59;5158454;28;20392;-69
2021/03/22 09:09:04;;;;;;;20.23;5.38;;;;;;;7.85;100.00;102590.47;5158273;28;20046;-69
2021/03/22 09:11:44;;;;;;;15.02;5.00;;;;;;;8.20;100.00;102598.72;5158723;28;20026;-70
2021/03/22 09:14:15;;;;;;;17.05;5.28;;;;;;;8.38;100.00;102596.56;5158460;28;20461;-69
2021/03/22 09:16:49;;;;;;;16.67;4.85;;;;;;;8.15;100.00;102608.03;5158317;28;20030;-69
2021/03/22 09:19:19;;;;;;;12.95;5.28;;;;;;;8.45;100.00;102605.88;5159030;28;20018;-69
2021/03/22 09:22:03;;;;;;;18.85;4.95;;;;;;;8.38;100.00;102598.41;5158270;28;20029;-70
2021/03/22 09:24:43;;;;;;;15.40;5.30;;;;;;;8.32;100.00;102602.31;5158390;28;20031;-70
2021/03/22 09:29:49;;;;;;;17.75;5.18;;;;;;;8.51;100.00;102594.75;5146443;28;20039;-70
2021/03/22 09:32:23;;;;;;;21.98;5.63;;;;;;;8.53;100.00;102586.59;5138073;28;20046;-70
2021/03/22 09:34:58;;;;;;;14.43;4.43;;;;;;;8.54;100.00;102591.00;5150880;28;20529;-70
2021/03/22 09:37:47;;;;;;;23.40;4.90;;;;;;;8.72;100.00;102594.16;5148824;28;20022;-70
2021/03/22 09:40:19;;;;;;;18.75;5.03;;;;;;;8.89;100.00;102603.63;5157644;28;20121;-69
2021/03/22 09:43:03;;;;;;;13.20;4.38;;;;;;;8.88;100.00;102599.22;5158154;28;20033;-69
2021/03/22 09:45:37;;;;;;;20.58;5.35;;;;;;;8.91;100.00;102599.03;5157655;28;20065;-70
2021/03/22 09:48:15;;;;;;;25.33;5.55;;;;;;;8.92;100.00;102600.72;5157962;28;20513;-70
2021/03/22 09:50:49;;;;;;;18.02;5.45;;;;;;;8.91;100.00;102596.34;5157487;28;20027;-69
2021/03/22 09:53:26;;;;;;;20.90;5.22;;;;;;;8.59;100.00;102601.38;5145328;28;20502;-69
2021/03/22 09:56:03;;;;;;;17.80;5.68;;;;;;;8.35;100.00;102607.47;5157450;28;20093;-70
2021/03/22 09:58:36;;;;;;;12.40;4.72;;;;;;;8.39;100.00;102609.00;5157848;28;20099;-70
2021/03/22 10:01:30;;;;;;;17.05;4.40;;;;;;;8.52;100.00;102612.50;5156374;28;20029;-70
2021/03/22 10:04:21;;;;;;;18.80;4.95;;;;;;;8.55;100.00;102609.59;5157416;28;20042;-70
2021/03/22 10:07:04;;;;;;;17.90;4.97;;;;;;;8.49;100.00;102611.88;5158036;28;20410;-70
2021/03/22 10:09:38;;;;;;;23.60;5.95;;;;;;;8.41;100.00;102616.91;5190037;28;20075;-68
2021/03/22 10:12:31;;;;;;;17.67;5.10;;;;;;;8.46;100.00;102618.28;5179752;28;20387;-70
2021/03/22 10:15:11;;;;;;;20.80;5.57;;;;;;;8.39;100.00;102617.03;5158148;28;20034;-70
2021/03/22 10:18:09;;;;;;;27.70;6.05;;;;;;;8.51;100.00;102618.81;5145392;28;20015;-70
2021/03/22 10:20:43;;;;;;;18.73;5.75;;;;;;;8.57;100.00;102623.72;5157077;28;20030;-70
2021/03/22 10:23:30;;;;;;;21.63;5.13;;;;;;;8.48;100.00;102621.72;5157460;28;20061;-70
2021/03/22 10:26:06;;;;;;;27.15;6.70;;;;;;;8.66;100.00;102621.34;5157546;28;20041;-70
2021/03/22 10:28:41;;;;;;;14.48;4.45;;;;;;;8.52;100.00;102620.53;5156981;28;20022;-70
2021/03/22 10:31:24;;;;;;;17.75;5.43;;;;;;;8.46;100.00;102625.47;5156818;28;20049;-70
2021/03/22 10:33:57;;;;;;;16.98;5.15;;;;;;;8.45;100.00;102619.25;5145447;28;20045;-70
2021/03/22 10:36:37;;;;;;;16.20;5.30;;;;;;;8.54;100.00;102629.31;5157494;28;20022;-70
2021/03/22 10:39:23;;;;;;;22.50;5.25;;;;;;;8.43;100.00;102631.88;5157572;28;20096;-71
2021/03/22 10:41:53;;;;;;;21.20;6.93;;;;;;;8.63;100.00;102629.59;5143176;28;20037;-70
2021/03/22 10:44:30;;;;;;;23.63;5.38;;;;;;;8.64;100.00;102625.97;5157295;28;20526;-70
2021/03/22 10:47:12;;;;;;;17.83;5.13;;;;;;;8.58;100.00;102632.59;5157024;28;20397;-70
2021/03/22 10:49:43;;;;;;;21.38;5.28;;;;;;;8.47;100.00;102635.19;5157055;28;20109;-70
2021/03/22 10:52:30;;;;;;;27.38;7.03;;;;;;;8.53;100.00;102640.97;5155119;28;20026;-70
2021/03/22 10:55:01;;;;;;;26.58;5.45;;;;;;;8.51;100.00;102644.72;5145321;28;20383;-70
2021/03/22 10:57:35;;;;;;;26.50;5.82;;;;;;;8.47;100.00;102649.41;5156764;28;20037;-70
2021/03/22 11:00:21;;;;;;;14.82;4.95;;;;;;;8.32;100.00;102650.47;5156589;28;20034;-70
2021/03/22 11:02:52;;;;;;;26.05;6.25;;;;;;;8.42;100.00;102648.03;5151336;28;20171;-70
2021/03/22 11:05:30;;;;;;;16.50;4.85;;;;;;;8.69;100.00;102645.22;5150199;28;20777;-70
2021/03/22 11:08:06;;;;;;;15.95;4.57;;;;;;;8.69;100.00;102643.41;5144625;28;20037;-70
2021/03/22 11:10:37;;;;;;;18.23;6.60;;;;;;;8.74;100.00;102646.59;5192479;28;20041;-70
2021/03/22 11:13:09;;;;;;;15.65;5.47;;;;;;;8.62;100.00;102647.47;5150944;28;20349;-70
2021/03/22 11:15:40;;;;;;;66.45;27.98;;;;;;;8.70;100.00;102647.78;5155510;28;20034;-70
2021/03/22 11:18:16;;;;;;;16.33;5.50;;;;;;;8.95;100.00;102651.38;5157590;28;20452;-70
2021/03/22 11:20:51;;;;;;;23.65;13.20;;;;;;;9.03;100.00;102654.31;5156311;28;20075;-70
2021/03/22 11:23:40;;;;;;;18.60;5.93;;;;;;;9.10;100.00;102647.56;5155951;28;20360;-70
2021/03/22 11:26:21;;;;;;;20.73;6.30;;;;;;;8.95;100.00;102654.91;5156935;28;20078;-70
2021/03/22 11:29:12;;;;;;;22.63;5.28;;;;;;;9.07;100.00;102653.13;5156492;28;20483;-70
2021/03/22 11:31:46;;;;;;;19.70;6.53;;;;;;;9.10;100.00;102658.28;5155017;28;20034;-70
2021/03/22 11:34:26;;;;;;;17.70;5.35;;;;;;;9.11;100.00;102654.63;5157233;28;20374;-70
2021/03/22 11:37:05;;;;;;;27.17;5.43;;;;;;;9.05;100.00;102660.44;5156772;28;20034;-70
2021/03/22 11:39:38;;;;;;;17.27;4.88;;;;;;;8.91;100.00;102652.56;5157342;28;20026;-70
2021/03/22 11:42:25;;;;;;;20.67;5.82;;;;;;;8.88;100.00;102650.09;5154997;28;20105;-70
2021/03/22 11:44:55;;;;;;;16.75;4.75;;;;;;;8.98;100.00;102651.97;5156626;28;20030;-70
2021/03/22 11:47:45;;;;;;;18.80;4.55;;;;;;;9.10;100.00;102658.28;5155830;28;20034;-70
2021/03/22 11:50:22;;;;;;;17.77;4.25;;;;;;;8.87;100.00;102648.38;5156907;28;20033;-70
2021/03/22 11:53:02;;;;;;;9.93;4.32;;;;;;;8.73;100.00;102644.00;5157697;28;20054;-70
2021/03/22 11:55:47;;;;;;;15.50;5.70;;;;;;;8.67;100.00;102650.66;5158203;28;20490;-70
2021/03/22 11:58:32;;;;;;;14.90;4.40;;;;;;;8.72;100.00;102650.34;5145990;28;20491;-70
2021/03/22 12:01:18;;;;;;;8.88;3.95;;;;;;;8.69;100.00;102646.09;5156577;28;20034;-70
2021/03/22 12:04:09;;;;;;;16.75;3.83;;;;;;;8.55;100.00;102649.75;5144839;28;20035;-70
2021/03/22 12:07:03;;;;;;;12.60;3.92;;;;;;;8.84;100.00;102641.44;5158097;28;20052;-70
2021/03/22 12:09:38;;;;;;;9.80;3.97;;;;;;;8.99;100.00;102647.50;5145612;28;20023;-70